sensor_id;sensor_type;location;lat;lon;timestamp;temperature;humidity
39665;DHT22;26679;50.872;4.332;2023-07-30T00:01:07;17.80;99.90
39665;DHT22;26679;50.872;4.332;2023-07-30T00:03:32;17.80;99.90
39665;DHT22;26679;50.872;4.332;2023-07-30T00:05:58;17.70;99.90
39665;DHT22;26679;50.872;4.332;2023-07-30T00:08:23;17.70;99.90
39665;DHT22;26679;50.872;4.332;2023-07-30T00:10:49;17.80;99.90
39665;DHT22;26679;50.872;4.332;2023-07-30T00:13:15;17.70;99.90
39665;DHT22;26679;50.872;4.332;2023-07-30T00:15:40;17.70;99.90
39665;DHT22;26679;50.872;4.332;2023-07-30T00:18:06;17.60;99.90
39665;DHT22;26679;50.872;4.332;2023-07-30T00:20:31;17.60;99.90
39665;DHT22;26679;50.872;4.332;2023-07-30T00:22:59;17.50;99.90
39665;DHT22;26679;50.872;4.332;2023-07-30T00:25:24;17.50;99.90
39665;DHT22;26679;50.872;4.332;2023-07-30T00:27:50;17.50;99.90
39665;DHT22;26679;50.872;4.332;2023-07-30T00:30:15;17.50;99.90
39665;DHT22;26679;50.872;4.332;2023-07-30T00:32:41;17.50;99.90
39665;DHT22;26679;50.872;4.332;2023-07-30T00:35:09;17.50;99.90
39665;DHT22;26679;50.872;4.332;2023-07-30T00:37:35;17.50;99.90
39665;DHT22;26679;50.872;4.332;2023-07-30T00:40:01;17.40;99.90
39665;DHT22;26679;50.872;4.332;2023-07-30T00:42:26;17.50;99.90
39665;DHT22;26679;50.872;4.332;2023-07-30T00:44:52;17.40;99.90
39665;DHT22;26679;50.872;4.332;2023-07-30T00:47:17;17.50;99.90
39665;DHT22;26679;50.872;4.332;2023-07-30T00:49:43;17.50;99.90
39665;DHT22;26679;50.872;4.332;2023-07-30T00:52:08;17.60;99.90
39665;DHT22;26679;50.872;4.332;2023-07-30T00:54:34;17.60;99.90
39665;DHT22;26679;50.872;4.332;2023-07-30T00:56:59;17.60;99.90
39665;DHT22;26679;50.872;4.332;2023-07-30T00:59:25;17.60;99.90
39665;DHT22;26679;50.872;4.332;2023-07-30T01:01:51;17.60;99.90
39665;DHT22;26679;50.872;4.332;2023-07-30T01:04:17;17.70;99.90
39665;DHT22;26679;50.872;4.332;2023-07-30T01:06:43;17.70;99.90
39665;DHT22;26679;50.872;4.332;2023-07-30T01:09:08;17.90;99.90
39665;DHT22;26679;50.872;4.332;2023-07-30T01:11:35;17.80;99.90
39665;DHT22;26679;50.872;4.332;2023-07-30T01:14:01;17.80;99.90
39665;DHT22;26679;50.872;4.332;2023-07-30T01:16:26;17.70;99.90
39665;DHT22;26679;50.872;4.332;2023-07-30T01:18:52;17.60;99.90
39665;DHT22;26679;50.872;4.332;2023-07-30T01:21:17;17.60;99.90
39665;DHT22;26679;50.872;4.332;2023-07-30T01:23:43;17.60;99.90
39665;DHT22;26679;50.872;4.332;2023-07-30T01:26:09;17.70;99.90
39665;DHT22;26679;50.872;4.332;2023-07-30T01:28:41;17.80;99.90
39665;DHT22;26679;50.872;4.332;2023-07-30T01:31:08;17.70;99.90
39665;DHT22;26679;50.872;4.332;2023-07-30T01:33:35;17.70;99.90
39665;DHT22;26679;50.872;4.332;2023-07-30T01:36:02;17.80;99.90
39665;DHT22;26679;50.872;4.332;2023-07-30T01:38:28;17.80;99.90
39665;DHT22;26679;50.872;4.332;2023-07-30T01:40:54;17.80;99.90
39665;DHT22;26679;50.872;4.332;2023-07-30T01:43:20;17.90;99.90
39665;DHT22;26679;50.872;4.332;2023-07-30T01:45:45;17.90;99.90
39665;DHT22;26679;50.872;4.332;2023-07-30T01:48:11;17.80;99.90
39665;DHT22;26679;50.872;4.332;2023-07-30T01:50:36;17.90;99.90
39665;DHT22;26679;50.872;4.332;2023-07-30T01:53:02;17.90;99.90
39665;DHT22;26679;50.872;4.332;2023-07-30T01:55:27;17.90;99.90
39665;DHT22;26679;50.872;4.332;2023-07-30T01:57:53;17.90;99.90
39665;DHT22;26679;50.872;4.332;2023-07-30T02:00:19;18.00;99.90
39665;DHT22;26679;50.872;4.332;2023-07-30T02:02:44;18.00;99.90
39665;DHT22;26679;50.872;4.332;2023-07-30T02:05:10;18.00;99.90
39665;DHT22;26679;50.872;4.332;2023-07-30T02:07:35;17.90;99.90
39665;DHT22;26679;50.872;4.332;2023-07-30T02:10:01;17.80;99.90
39665;DHT22;26679;50.872;4.332;2023-07-30T02:12:26;17.90;99.90
39665;DHT22;26679;50.872;4.332;2023-07-30T02:14:52;17.80;99.90
39665;DHT22;26679;50.872;4.332;2023-07-30T02:17:17;17.80;99.90
39665;DHT22;26679;50.872;4.332;2023-07-30T02:19:43;17.80;99.90
39665;DHT22;26679;50.872;4.332;2023-07-30T02:22:08;17.80;99.90
39665;DHT22;26679;50.872;4.332;2023-07-30T02:24:34;17.80;99.90
39665;DHT22;26679;50.872;4.332;2023-07-30T02:26:59;17.80;99.90
39665;DHT22;26679;50.872;4.332;2023-07-30T02:29:27;17.80;99.90
39665;DHT22;26679;50.872;4.332;2023-07-30T02:31:52;17.80;99.90
39665;DHT22;26679;50.872;4.332;2023-07-30T02:34:18;17.80;99.90
39665;DHT22;26679;50.872;4.332;2023-07-30T02:36:43;17.60;99.90
39665;DHT22;26679;50.872;4.332;2023-07-30T02:39:09;17.50;99.90
39665;DHT22;26679;50.872;4.332;2023-07-30T02:41:34;18.60;99.90
39665;DHT22;26679;50.872;4.332;2023-07-30T02:44:00;17.60;99.90
39665;DHT22;26679;50.872;4.332;2023-07-30T02:46:25;17.50;99.90
39665;DHT22;26679;50.872;4.332;2023-07-30T02:48:51;17.50;99.90
39665;DHT22;26679;50.872;4.332;2023-07-30T02:51:16;17.50;99.90
39665;DHT22;26679;50.872;4.332;2023-07-30T02:53:45;17.50;99.90
39665;DHT22;26679;50.872;4.332;2023-07-30T02:56:10;17.30;99.90
39665;DHT22;26679;50.872;4.332;2023-07-30T02:58:36;17.30;99.90
39665;DHT22;26679;50.872;4.332;2023-07-30T03:01:05;17.30;99.90
39665;DHT22;26679;50.872;4.332;2023-07-30T03:03:31;17.30;99.90
39665;DHT22;26679;50.872;4.332;2023-07-30T03:05:56;17.30;99.90
39665;DHT22;26679;50.872;4.332;2023-07-30T03:08:22;17.40;99.90
39665;DHT22;26679;50.872;4.332;2023-07-30T03:10:47;17.40;99.90
39665;DHT22;26679;50.872;4.332;2023-07-30T03:13:13;17.30;99.90
39665;DHT22;26679;50.872;4.332;2023-07-30T03:15:38;17.30;99.90
39665;DHT22;26679;50.872;4.332;2023-07-30T03:18:04;17.30;99.90
39665;DHT22;26679;50.872;4.332;2023-07-30T03:20:30;17.30;99.90
39665;DHT22;26679;50.872;4.332;2023-07-30T03:22:55;17.50;99.90
39665;DHT22;26679;50.872;4.332;2023-07-30T03:25:20;17.50;99.90
39665;DHT22;26679;50.872;4.332;2023-07-30T03:27:46;17.40;99.90
39665;DHT22;26679;50.872;4.332;2023-07-30T03:30:11;17.30;99.90
39665;DHT22;26679;50.872;4.332;2023-07-30T03:32:37;17.30;99.90
39665;DHT22;26679;50.872;4.332;2023-07-30T03:35:03;17.40;99.90
39665;DHT22;26679;50.872;4.332;2023-07-30T03:37:28;17.30;99.90
39665;DHT22;26679;50.872;4.332;2023-07-30T03:39:54;17.40;99.90
39665;DHT22;26679;50.872;4.332;2023-07-30T03:42:19;17.40;99.90
39665;DHT22;26679;50.872;4.332;2023-07-30T03:44:45;17.20;99.90
39665;DHT22;26679;50.872;4.332;2023-07-30T03:47:10;17.30;99.90
39665;DHT22;26679;50.872;4.332;2023-07-30T03:49:36;17.40;99.90
39665;DHT22;26679;50.872;4.332;2023-07-30T03:52:02;17.40;99.90
39665;DHT22;26679;50.872;4.332;2023-07-30T03:54:28;17.30;99.90
39665;DHT22;26679;50.872;4.332;2023-07-30T03:56:53;17.30;99.90
39665;DHT22;26679;50.872;4.332;2023-07-30T03:59:19;17.30;99.90
39665;DHT22;26679;50.872;4.332;2023-07-30T04:01:44;17.20;99.90
39665;DHT22;26679;50.872;4.332;2023-07-30T04:04:10;17.20;99.90
39665;DHT22;26679;50.872;4.332;2023-07-30T04:06:35;17.20;99.90
39665;DHT22;26679;50.872;4.332;2023-07-30T04:09:01;17.20;99.90
39665;DHT22;26679;50.872;4.332;2023-07-30T04:11:26;17.20;99.90
39665;DHT22;26679;50.872;4.332;2023-07-30T04:13:52;17.10;99.90
39665;DHT22;26679;50.872;4.332;2023-07-30T04:16:17;17.00;99.90
39665;DHT22;26679;50.872;4.332;2023-07-30T04:18:43;17.00;99.90
39665;DHT22;26679;50.872;4.332;2023-07-30T04:21:08;17.00;99.90
39665;DHT22;26679;50.872;4.332;2023-07-30T04:23:34;17.00;99.90
39665;DHT22;26679;50.872;4.332;2023-07-30T04:26:00;17.00;99.90
39665;DHT22;26679;50.872;4.332;2023-07-30T04:28:26;17.00;99.90
39665;DHT22;26679;50.872;4.332;2023-07-30T04:30:54;16.90;99.90
39665;DHT22;26679;50.872;4.332;2023-07-30T04:33:20;16.90;99.90
39665;DHT22;26679;50.872;4.332;2023-07-30T04:35:51;15.70;99.90
39665;DHT22;26679;50.872;4.332;2023-07-30T04:38:17;16.80;99.90
39665;DHT22;26679;50.872;4.332;2023-07-30T04:40:43;16.70;99.90
39665;DHT22;26679;50.872;4.332;2023-07-30T04:43:11;16.70;99.90
39665;DHT22;26679;50.872;4.332;2023-07-30T04:45:37;16.70;99.90
39665;DHT22;26679;50.872;4.332;2023-07-30T04:48:05;16.80;99.90
39665;DHT22;26679;50.872;4.332;2023-07-30T04:50:30;16.90;99.90
39665;DHT22;26679;50.872;4.332;2023-07-30T04:52:56;16.80;99.90
39665;DHT22;26679;50.872;4.332;2023-07-30T04:55:22;16.90;99.90
39665;DHT22;26679;50.872;4.332;2023-07-30T04:57:47;16.90;99.90
39665;DHT22;26679;50.872;4.332;2023-07-30T05:00:13;16.90;99.90
39665;DHT22;26679;50.872;4.332;2023-07-30T05:02:38;16.90;99.90
39665;DHT22;26679;50.872;4.332;2023-07-30T05:05:04;16.90;99.90
39665;DHT22;26679;50.872;4.332;2023-07-30T05:07:30;16.90;99.90
39665;DHT22;26679;50.872;4.332;2023-07-30T05:09:55;16.90;99.90
39665;DHT22;26679;50.872;4.332;2023-07-30T05:12:21;16.80;99.90
39665;DHT22;26679;50.872;4.332;2023-07-30T05:14:46;16.90;99.90
39665;DHT22;26679;50.872;4.332;2023-07-30T05:17:12;16.90;99.90
39665;DHT22;26679;50.872;4.332;2023-07-30T05:19:37;17.00;99.90
39665;DHT22;26679;50.872;4.332;2023-07-30T05:22:03;17.00;99.90
39665;DHT22;26679;50.872;4.332;2023-07-30T05:24:30;17.10;99.90
39665;DHT22;26679;50.872;4.332;2023-07-30T05:26:56;17.10;99.90
39665;DHT22;26679;50.872;4.332;2023-07-30T05:29:21;17.10;99.90
39665;DHT22;26679;50.872;4.332;2023-07-30T05:31:47;17.20;99.90
39665;DHT22;26679;50.872;4.332;2023-07-30T05:34:12;17.10;99.90
39665;DHT22;26679;50.872;4.332;2023-07-30T05:36:38;17.10;99.90
39665;DHT22;26679;50.872;4.332;2023-07-30T05:39:03;17.00;99.90
39665;DHT22;26679;50.872;4.332;2023-07-30T05:41:29;17.00;99.90
39665;DHT22;26679;50.872;4.332;2023-07-30T05:43:54;17.10;99.90
39665;DHT22;26679;50.872;4.332;2023-07-30T05:46:20;17.20;99.90
39665;DHT22;26679;50.872;4.332;2023-07-30T05:48:45;17.20;99.90
39665;DHT22;26679;50.872;4.332;2023-07-30T05:51:11;17.20;99.90
39665;DHT22;26679;50.872;4.332;2023-07-30T05:53:36;17.20;99.90
39665;DHT22;26679;50.872;4.332;2023-07-30T05:56:02;17.10;99.90
39665;DHT22;26679;50.872;4.332;2023-07-30T05:58:28;17.20;99.90
39665;DHT22;26679;50.872;4.332;2023-07-30T06:00:53;17.30;99.90
39665;DHT22;26679;50.872;4.332;2023-07-30T06:03:18;17.20;99.90
39665;DHT22;26679;50.872;4.332;2023-07-30T06:05:44;17.20;99.90
39665;DHT22;26679;50.872;4.332;2023-07-30T06:08:10;17.20;99.90
39665;DHT22;26679;50.872;4.332;2023-07-30T06:13:19;17.20;99.90
39665;DHT22;26679;50.872;4.332;2023-07-30T06:15:45;17.20;99.90
39665;DHT22;26679;50.872;4.332;2023-07-30T06:18:10;17.30;99.90
39665;DHT22;26679;50.872;4.332;2023-07-30T06:20:36;17.30;99.90
39665;DHT22;26679;50.872;4.332;2023-07-30T06:23:02;17.30;99.90
39665;DHT22;26679;50.872;4.332;2023-07-30T06:25:29;17.40;99.90
39665;DHT22;26679;50.872;4.332;2023-07-30T06:27:54;17.50;99.90
39665;DHT22;26679;50.872;4.332;2023-07-30T06:30:22;17.40;99.90
39665;DHT22;26679;50.872;4.332;2023-07-30T06:32:48;17.40;99.90
39665;DHT22;26679;50.872;4.332;2023-07-30T06:35:13;17.40;99.90
39665;DHT22;26679;50.872;4.332;2023-07-30T06:37:39;17.40;99.90
39665;DHT22;26679;50.872;4.332;2023-07-30T06:40:04;17.40;99.90
39665;DHT22;26679;50.872;4.332;2023-07-30T06:42:31;17.40;99.90
39665;DHT22;26679;50.872;4.332;2023-07-30T06:44:57;17.40;99.90
39665;DHT22;26679;50.872;4.332;2023-07-30T06:47:22;17.40;99.90
39665;DHT22;26679;50.872;4.332;2023-07-30T06:49:48;17.50;99.90
39665;DHT22;26679;50.872;4.332;2023-07-30T06:52:13;17.40;99.90
39665;DHT22;26679;50.872;4.332;2023-07-30T06:54:39;17.50;99.90
39665;DHT22;26679;50.872;4.332;2023-07-30T06:57:04;17.40;99.90
39665;DHT22;26679;50.872;4.332;2023-07-30T06:59:30;17.50;99.90
39665;DHT22;26679;50.872;4.332;2023-07-30T07:01:56;17.60;99.90
39665;DHT22;26679;50.872;4.332;2023-07-30T07:04:21;17.50;99.90
39665;DHT22;26679;50.872;4.332;2023-07-30T07:06:47;17.60;99.90
39665;DHT22;26679;50.872;4.332;2023-07-30T07:09:12;17.60;99.90
39665;DHT22;26679;50.872;4.332;2023-07-30T07:11:38;17.70;99.90
39665;DHT22;26679;50.872;4.332;2023-07-30T07:14:04;17.60;99.90
39665;DHT22;26679;50.872;4.332;2023-07-30T07:16:29;17.80;99.90
39665;DHT22;26679;50.872;4.332;2023-07-30T07:18:55;17.80;99.90
39665;DHT22;26679;50.872;4.332;2023-07-30T07:21:20;17.80;99.90
39665;DHT22;26679;50.872;4.332;2023-07-30T07:23:46;18.00;99.90
39665;DHT22;26679;50.872;4.332;2023-07-30T07:26:12;18.30;99.90
39665;DHT22;26679;50.872;4.332;2023-07-30T07:28:37;18.40;99.90
39665;DHT22;26679;50.872;4.332;2023-07-30T07:31:03;18.70;99.90
39665;DHT22;26679;50.872;4.332;2023-07-30T07:33:28;18.80;99.90
39665;DHT22;26679;50.872;4.332;2023-07-30T07:36:06;18.90;99.90
39665;DHT22;26679;50.872;4.332;2023-07-30T07:38:32;18.90;99.90
39665;DHT22;26679;50.872;4.332;2023-07-30T07:40:58;18.80;99.90
39665;DHT22;26679;50.872;4.332;2023-07-30T07:43:24;18.90;99.90
39665;DHT22;26679;50.872;4.332;2023-07-30T07:45:49;18.90;99.90
39665;DHT22;26679;50.872;4.332;2023-07-30T07:48:15;18.90;99.90
39665;DHT22;26679;50.872;4.332;2023-07-30T07:50:40;19.10;99.90
39665;DHT22;26679;50.872;4.332;2023-07-30T07:53:06;19.00;99.90
39665;DHT22;26679;50.872;4.332;2023-07-30T07:55:31;19.10;99.90
39665;DHT22;26679;50.872;4.332;2023-07-30T07:57:58;19.20;99.90
39665;DHT22;26679;50.872;4.332;2023-07-30T08:00:23;19.20;99.90
39665;DHT22;26679;50.872;4.332;2023-07-30T08:02:49;19.10;99.90
39665;DHT22;26679;50.872;4.332;2023-07-30T08:05:15;19.20;99.90
39665;DHT22;26679;50.872;4.332;2023-07-30T08:07:40;19.40;99.90
39665;DHT22;26679;50.872;4.332;2023-07-30T08:10:06;19.50;99.90
39665;DHT22;26679;50.872;4.332;2023-07-30T08:12:32;19.50;99.90
39665;DHT22;26679;50.872;4.332;2023-07-30T08:14:58;19.50;99.90
39665;DHT22;26679;50.872;4.332;2023-07-30T08:17:24;19.50;99.90
39665;DHT22;26679;50.872;4.332;2023-07-30T08:19:49;19.30;99.90
39665;DHT22;26679;50.872;4.332;2023-07-30T08:22:15;19.50;99.90
39665;DHT22;26679;50.872;4.332;2023-07-30T08:24:40;19.50;99.90
39665;DHT22;26679;50.872;4.332;2023-07-30T08:27:06;19.70;99.90
39665;DHT22;26679;50.872;4.332;2023-07-30T08:29:31;19.70;99.90
39665;DHT22;26679;50.872;4.332;2023-07-30T08:31:57;19.70;99.90
39665;DHT22;26679;50.872;4.332;2023-07-30T08:34:25;19.60;99.90
39665;DHT22;26679;50.872;4.332;2023-07-30T08:39:56;20.00;99.90
39665;DHT22;26679;50.872;4.332;2023-07-30T08:42:22;20.10;99.90
39665;DHT22;26679;50.872;4.332;2023-07-30T08:44:47;20.10;99.90
39665;DHT22;26679;50.872;4.332;2023-07-30T08:47:13;20.00;99.90
39665;DHT22;26679;50.872;4.332;2023-07-30T08:49:38;20.00;99.90
39665;DHT22;26679;50.872;4.332;2023-07-30T08:52:04;19.80;99.90
39665;DHT22;26679;50.872;4.332;2023-07-30T08:54:31;19.80;99.90
39665;DHT22;26679;50.872;4.332;2023-07-30T08:57:00;19.80;99.90
39665;DHT22;26679;50.872;4.332;2023-07-30T08:59:27;19.80;99.90
39665;DHT22;26679;50.872;4.332;2023-07-30T09:01:53;19.90;99.90
39665;DHT22;26679;50.872;4.332;2023-07-30T09:04:19;19.90;99.90
39665;DHT22;26679;50.872;4.332;2023-07-30T09:06:48;19.90;99.90
39665;DHT22;26679;50.872;4.332;2023-07-30T09:09:14;20.00;99.90
39665;DHT22;26679;50.872;4.332;2023-07-30T09:11:39;20.10;99.90
39665;DHT22;26679;50.872;4.332;2023-07-30T09:14:05;20.00;99.90
39665;DHT22;26679;50.872;4.332;2023-07-30T09:16:31;20.00;99.90
39665;DHT22;26679;50.872;4.332;2023-07-30T09:18:57;19.90;99.90
39665;DHT22;26679;50.872;4.332;2023-07-30T09:21:41;19.60;99.90
39665;DHT22;26679;50.872;4.332;2023-07-30T09:24:06;19.20;99.90
39665;DHT22;26679;50.872;4.332;2023-07-30T09:26:42;19.30;99.90
39665;DHT22;26679;50.872;4.332;2023-07-30T09:29:09;19.40;99.90
39665;DHT22;26679;50.872;4.332;2023-07-30T09:31:53;19.50;99.90
39665;DHT22;26679;50.872;4.332;2023-07-30T09:34:22;19.60;99.90
39665;DHT22;26679;50.872;4.332;2023-07-30T09:36:52;19.80;99.90
39665;DHT22;26679;50.872;4.332;2023-07-30T09:41:46;19.80;99.90
39665;DHT22;26679;50.872;4.332;2023-07-30T09:44:12;19.60;99.90
39665;DHT22;26679;50.872;4.332;2023-07-30T09:46:44;19.50;99.90
39665;DHT22;26679;50.872;4.332;2023-07-30T09:49:10;19.30;99.90
39665;DHT22;26679;50.872;4.332;2023-07-30T09:51:36;19.20;99.90
39665;DHT22;26679;50.872;4.332;2023-07-30T09:54:02;19.10;99.90
39665;DHT22;26679;50.872;4.332;2023-07-30T09:56:28;19.10;99.90
39665;DHT22;26679;50.872;4.332;2023-07-30T09:58:53;19.30;99.90
39665;DHT22;26679;50.872;4.332;2023-07-30T10:01:19;19.50;99.90
39665;DHT22;26679;50.872;4.332;2023-07-30T10:03:48;19.50;99.90
39665;DHT22;26679;50.872;4.332;2023-07-30T10:06:14;19.50;99.90
39665;DHT22;26679;50.872;4.332;2023-07-30T10:08:41;19.40;99.90
39665;DHT22;26679;50.872;4.332;2023-07-30T10:11:07;19.30;99.90
39665;DHT22;26679;50.872;4.332;2023-07-30T10:13:33;19.40;99.90
39665;DHT22;26679;50.872;4.332;2023-07-30T10:16:00;19.70;99.90
39665;DHT22;26679;50.872;4.332;2023-07-30T10:18:38;19.90;99.90
39665;DHT22;26679;50.872;4.332;2023-07-30T10:21:05;20.10;99.90
39665;DHT22;26679;50.872;4.332;2023-07-30T10:23:32;20.80;99.90
39665;DHT22;26679;50.872;4.332;2023-07-30T10:25:58;22.20;99.90
39665;DHT22;26679;50.872;4.332;2023-07-30T10:28:31;23.00;99.90
39665;DHT22;26679;50.872;4.332;2023-07-30T10:30:58;23.60;99.90
39665;DHT22;26679;50.872;4.332;2023-07-30T10:33:26;24.20;99.90
39665;DHT22;26679;50.872;4.332;2023-07-30T10:36:08;25.10;99.80
39665;DHT22;26679;50.872;4.332;2023-07-30T10:38:35;25.60;97.60
39665;DHT22;26679;50.872;4.332;2023-07-30T10:41:01;24.60;98.20
39665;DHT22;26679;50.872;4.332;2023-07-30T10:43:27;23.80;99.00
39665;DHT22;26679;50.872;4.332;2023-07-30T10:45:53;23.10;99.70
39665;DHT22;26679;50.872;4.332;2023-07-30T10:48:19;22.60;99.90
39665;DHT22;26679;50.872;4.332;2023-07-30T10:50:54;21.40;99.90
39665;DHT22;26679;50.872;4.332;2023-07-30T10:53:20;20.60;99.90
39665;DHT22;26679;50.872;4.332;2023-07-30T10:55:45;20.30;99.90
39665;DHT22;26679;50.872;4.332;2023-07-30T10:58:11;20.10;99.90
39665;DHT22;26679;50.872;4.332;2023-07-30T11:00:36;20.40;99.90
39665;DHT22;26679;50.872;4.332;2023-07-30T11:03:02;20.80;99.90
39665;DHT22;26679;50.872;4.332;2023-07-30T11:05:28;21.50;99.90
39665;DHT22;26679;50.872;4.332;2023-07-30T11:07:58;22.40;99.90
39665;DHT22;26679;50.872;4.332;2023-07-30T11:10:23;23.50;99.90
39665;DHT22;26679;50.872;4.332;2023-07-30T11:12:49;24.60;99.00
39665;DHT22;26679;50.872;4.332;2023-07-30T11:15:16;25.20;98.60
39665;DHT22;26679;50.872;4.332;2023-07-30T11:17:42;25.80;96.70
39665;DHT22;26679;50.872;4.332;2023-07-30T11:20:21;25.10;97.20
39665;DHT22;26679;50.872;4.332;2023-07-30T11:22:46;24.90;96.20
39665;DHT22;26679;50.872;4.332;2023-07-30T11:25:18;24.40;96.00
39665;DHT22;26679;50.872;4.332;2023-07-30T11:30:31;26.40;94.60
39665;DHT22;26679;50.872;4.332;2023-07-30T11:32:57;26.80;92.50
39665;DHT22;26679;50.872;4.332;2023-07-30T11:35:31;27.00;92.80
39665;DHT22;26679;50.872;4.332;2023-07-30T11:38:20;27.00;91.80
39665;DHT22;26679;50.872;4.332;2023-07-30T11:40:46;27.10;91.90
39665;DHT22;26679;50.872;4.332;2023-07-30T11:43:12;27.50;91.20
39665;DHT22;26679;50.872;4.332;2023-07-30T11:45:37;27.60;91.20
39665;DHT22;26679;50.872;4.332;2023-07-30T11:48:06;26.70;90.90
39665;DHT22;26679;50.872;4.332;2023-07-30T11:50:50;26.50;91.20
39665;DHT22;26679;50.872;4.332;2023-07-30T11:53:16;26.60;91.30
39665;DHT22;26679;50.872;4.332;2023-07-30T11:55:43;26.70;90.70
39665;DHT22;26679;50.872;4.332;2023-07-30T11:58:09;25.90;91.10
39665;DHT22;26679;50.872;4.332;2023-07-30T12:00:41;25.10;92.10
39665;DHT22;26679;50.872;4.332;2023-07-30T12:03:26;24.90;92.20
39665;DHT22;26679;50.872;4.332;2023-07-30T12:05:53;24.60;92.50
39665;DHT22;26679;50.872;4.332;2023-07-30T12:08:25;23.40;92.90
39665;DHT22;26679;50.872;4.332;2023-07-30T12:10:50;24.90;92.90
39665;DHT22;26679;50.872;4.332;2023-07-30T12:13:20;25.20;92.50
39665;DHT22;26679;50.872;4.332;2023-07-30T12:15:52;24.80;92.60
39665;DHT22;26679;50.872;4.332;2023-07-30T12:18:19;24.90;92.50
39665;DHT22;26679;50.872;4.332;2023-07-30T12:20:44;25.30;92.50
39665;DHT22;26679;50.872;4.332;2023-07-30T12:23:10;24.90;92.40
39665;DHT22;26679;50.872;4.332;2023-07-30T12:25:35;24.60;93.00
39665;DHT22;26679;50.872;4.332;2023-07-30T12:28:01;24.60;93.00
39665;DHT22;26679;50.872;4.332;2023-07-30T12:30:26;24.40;93.30
39665;DHT22;26679;50.872;4.332;2023-07-30T12:32:53;24.10;93.60
39665;DHT22;26679;50.872;4.332;2023-07-30T12:35:19;24.00;93.90
39665;DHT22;26679;50.872;4.332;2023-07-30T12:37:44;24.40;93.90
39665;DHT22;26679;50.872;4.332;2023-07-30T12:40:10;25.00;93.80
39665;DHT22;26679;50.872;4.332;2023-07-30T12:42:35;24.60;93.00
39665;DHT22;26679;50.872;4.332;2023-07-30T12:45:04;24.30;93.50
39665;DHT22;26679;50.872;4.332;2023-07-30T12:47:53;24.00;93.80
39665;DHT22;26679;50.872;4.332;2023-07-30T12:50:19;24.70;93.40
39665;DHT22;26679;50.872;4.332;2023-07-30T12:52:44;25.70;93.00
39665;DHT22;26679;50.872;4.332;2023-07-30T12:55:10;26.00;92.50
39665;DHT22;26679;50.872;4.332;2023-07-30T12:57:35;26.30;92.30
39665;DHT22;26679;50.872;4.332;2023-07-30T13:00:01;26.60;92.30
39665;DHT22;26679;50.872;4.332;2023-07-30T13:02:30;27.30;90.40
39665;DHT22;26679;50.872;4.332;2023-07-30T13:04:58;28.10;88.30
39665;DHT22;26679;50.872;4.332;2023-07-30T13:07:24;28.40;87.80
39665;DHT22;26679;50.872;4.332;2023-07-30T13:09:54;28.40;88.30
39665;DHT22;26679;50.872;4.332;2023-07-30T13:12:26;28.80;87.50
39665;DHT22;26679;50.872;4.332;2023-07-30T13:14:52;28.50;87.80
39665;DHT22;26679;50.872;4.332;2023-07-30T13:17:17;28.50;87.20
39665;DHT22;26679;50.872;4.332;2023-07-30T13:19:43;27.90;87.20
39665;DHT22;26679;50.872;4.332;2023-07-30T13:22:08;27.50;88.60
39665;DHT22;26679;50.872;4.332;2023-07-30T13:24:34;27.60;87.40
39665;DHT22;26679;50.872;4.332;2023-07-30T13:27:01;27.00;87.90
39665;DHT22;26679;50.872;4.332;2023-07-30T13:29:26;26.90;88.60
39665;DHT22;26679;50.872;4.332;2023-07-30T13:31:52;27.50;88.20
39665;DHT22;26679;50.872;4.332;2023-07-30T13:34:17;27.80;87.70
39665;DHT22;26679;50.872;4.332;2023-07-30T13:36:43;27.40;88.10
39665;DHT22;26679;50.872;4.332;2023-07-30T13:39:09;27.20;87.60
39665;DHT22;26679;50.872;4.332;2023-07-30T13:41:35;26.90;88.10
39665;DHT22;26679;50.872;4.332;2023-07-30T13:44:00;27.10;88.20
39665;DHT22;26679;50.872;4.332;2023-07-30T13:46:26;27.70;88.30
39665;DHT22;26679;50.872;4.332;2023-07-30T13:48:51;28.30;86.50
39665;DHT22;26679;50.872;4.332;2023-07-30T13:51:17;27.70;86.50
39665;DHT22;26679;50.872;4.332;2023-07-30T13:53:42;27.40;87.40
39665;DHT22;26679;50.872;4.332;2023-07-30T13:56:08;27.00;88.20
39665;DHT22;26679;50.872;4.332;2023-07-30T13:58:33;26.40;89.20
39665;DHT22;26679;50.872;4.332;2023-07-30T14:00:59;25.70;90.20
39665;DHT22;26679;50.872;4.332;2023-07-30T14:03:24;25.30;90.60
39665;DHT22;26679;50.872;4.332;2023-07-30T14:05:50;25.80;90.70
39665;DHT22;26679;50.872;4.332;2023-07-30T14:08:15;26.80;90.10
39665;DHT22;26679;50.872;4.332;2023-07-30T14:10:42;27.30;89.70
39665;DHT22;26679;50.872;4.332;2023-07-30T14:13:08;26.80;90.20
39665;DHT22;26679;50.872;4.332;2023-07-30T14:15:33;26.30;90.80
39665;DHT22;26679;50.872;4.332;2023-07-30T14:17:59;25.90;90.90
39665;DHT22;26679;50.872;4.332;2023-07-30T14:20:24;25.50;91.50
39665;DHT22;26679;50.872;4.332;2023-07-30T14:22:50;25.10;91.70
39665;DHT22;26679;50.872;4.332;2023-07-30T14:25:17;24.60;92.30
39665;DHT22;26679;50.872;4.332;2023-07-30T14:27:42;24.50;92.80
39665;DHT22;26679;50.872;4.332;2023-07-30T14:30:08;24.40;92.70
39665;DHT22;26679;50.872;4.332;2023-07-30T14:32:33;24.60;92.80
39665;DHT22;26679;50.872;4.332;2023-07-30T14:34:59;24.90;92.50
39665;DHT22;26679;50.872;4.332;2023-07-30T14:37:26;24.90;92.70
39665;DHT22;26679;50.872;4.332;2023-07-30T14:39:51;24.80;92.90
39665;DHT22;26679;50.872;4.332;2023-07-30T14:42:17;24.50;93.40
39665;DHT22;26679;50.872;4.332;2023-07-30T14:44:43;24.20;93.80
39665;DHT22;26679;50.872;4.332;2023-07-30T14:47:08;23.90;94.30
39665;DHT22;26679;50.872;4.332;2023-07-30T14:49:36;23.60;94.60
39665;DHT22;26679;50.872;4.332;2023-07-30T14:52:04;23.60;95.10
39665;DHT22;26679;50.872;4.332;2023-07-30T14:54:29;23.80;95.10
39665;DHT22;26679;50.872;4.332;2023-07-30T14:56:55;23.60;95.20
39665;DHT22;26679;50.872;4.332;2023-07-30T14:59:20;23.30;95.70
39665;DHT22;26679;50.872;4.332;2023-07-30T15:01:46;23.20;95.40
39665;DHT22;26679;50.872;4.332;2023-07-30T15:04:11;23.00;95.60
39665;DHT22;26679;50.872;4.332;2023-07-30T15:06:37;22.80;95.70
39665;DHT22;26679;50.872;4.332;2023-07-30T15:09:02;22.90;96.00
39665;DHT22;26679;50.872;4.332;2023-07-30T15:11:28;22.90;96.20
39665;DHT22;26679;50.872;4.332;2023-07-30T15:13:54;22.60;96.60
39665;DHT22;26679;50.872;4.332;2023-07-30T15:16:19;22.60;96.90
39665;DHT22;26679;50.872;4.332;2023-07-30T15:18:45;22.60;97.00
39665;DHT22;26679;50.872;4.332;2023-07-30T15:21:14;22.70;97.10
39665;DHT22;26679;50.872;4.332;2023-07-30T15:23:43;22.50;96.90
39665;DHT22;26679;50.872;4.332;2023-07-30T15:26:09;22.50;97.00
39665;DHT22;26679;50.872;4.332;2023-07-30T15:28:35;22.20;98.00
39665;DHT22;26679;50.872;4.332;2023-07-30T15:31:00;21.80;99.10
39665;DHT22;26679;50.872;4.332;2023-07-30T15:33:26;21.50;99.90
39665;DHT22;26679;50.872;4.332;2023-07-30T15:35:52;21.10;99.90